createdAt,value
2018-09-05T00:00:13.120Z,68.10
2018-09-05T00:02:42.317Z,67.90
2018-09-05T00:05:11.521Z,68.10
2018-09-05T00:07:40.643Z,68.30
2018-09-05T00:10:09.890Z,68.30
2018-09-05T00:12:38.894Z,68.40
2018-09-05T00:15:08.022Z,68.40
2018-09-05T00:17:37.090Z,68.40
2018-09-05T00:20:06.310Z,68.60
2018-09-05T00:22:35.415Z,68.60
2018-09-05T00:25:08.825Z,68.70
2018-09-05T00:27:37.947Z,68.80
2018-09-05T00:30:07.068Z,68.80
2018-09-05T00:32:35.867Z,68.80
2018-09-05T00:35:04.712Z,68.90
2018-09-05T00:37:33.510Z,69.00
2018-09-05T00:40:02.343Z,69.10
2018-09-05T00:42:31.250Z,69.10
2018-09-05T00:45:00.232Z,69.20
2018-09-05T00:47:29.156Z,69.50
2018-09-05T00:50:00.764Z,69.50
2018-09-05T00:52:30.463Z,69.40
2018-09-05T00:54:59.347Z,69.40
2018-09-05T00:57:28.749Z,69.40
2018-09-05T00:59:57.886Z,69.80
2018-09-05T01:02:26.791Z,69.80
2018-09-05T01:04:56.396Z,70.00
2018-09-05T01:07:26.753Z,70.20
2018-09-05T01:09:55.992Z,70.30
2018-09-05T01:12:25.577Z,70.20
2018-09-05T01:14:55.254Z,70.20
2018-09-05T01:17:24.144Z,70.30
2018-09-05T01:19:53.101Z,70.20
2018-09-05T01:22:21.988Z,70.20
2018-09-05T01:24:50.674Z,70.30
2018-09-05T01:27:19.325Z,70.30
2018-09-05T01:29:48.010Z,70.60
2018-09-05T01:32:16.649Z,70.70
2018-09-05T01:34:45.479Z,70.60
2018-09-05T01:37:50.471Z,70.70
2018-09-05T01:40:19.204Z,71.00
2018-09-05T01:42:47.970Z,70.90
2018-09-05T01:45:16.726Z,70.80
2018-09-05T01:47:45.376Z,70.80
2018-09-05T01:50:14.088Z,71.40
2018-09-05T01:52:42.791Z,71.50
2018-09-05T01:55:11.422Z,72.10
2018-09-05T01:57:40.100Z,72.20
2018-09-05T02:00:13.244Z,71.80
2018-09-05T02:02:41.880Z,71.70
2018-09-05T02:05:10.552Z,71.90
2018-09-05T02:07:39.362Z,72.00
2018-09-05T02:10:08.045Z,72.00
2018-09-05T02:12:36.696Z,71.90
2018-09-05T02:15:05.441Z,71.80
2018-09-05T02:17:34.205Z,71.80
2018-09-05T02:20:02.859Z,71.80
2018-09-05T02:22:31.585Z,72.00
2018-09-05T02:25:00.220Z,72.10
2018-09-05T02:27:28.894Z,72.00
2018-09-05T02:29:57.716Z,72.30
2018-09-05T02:32:26.381Z,72.10
2018-09-05T02:34:55.316Z,72.20
2018-09-05T02:37:24.076Z,72.20
2018-09-05T02:39:52.932Z,72.10
2018-09-05T02:42:21.687Z,72.20
2018-09-05T02:44:50.312Z,72.10
2018-09-05T02:47:19.040Z,72.20
2018-09-05T02:49:47.764Z,72.40
2018-09-05T02:52:16.770Z,72.50
2018-09-05T02:54:45.718Z,72.30
2018-09-05T02:57:14.701Z,72.40
2018-09-05T02:59:43.576Z,72.70
2018-09-05T03:02:12.462Z,72.50
2018-09-05T03:04:41.434Z,72.60
2018-09-05T03:07:10.269Z,72.50
2018-09-05T03:09:39.326Z,72.70
2018-09-05T03:12:08.332Z,72.70
2018-09-05T03:14:37.327Z,72.60
2018-09-05T03:17:06.399Z,72.60
2018-09-05T03:19:35.404Z,72.60
2018-09-05T03:22:04.336Z,72.70
2018-09-05T03:24:33.340Z,72.90
2018-09-05T03:27:02.256Z,72.90
2018-09-05T03:29:31.215Z,73.20
2018-09-05T03:32:00.151Z,73.10
2018-09-05T03:34:29.080Z,73.20
2018-09-05T03:36:57.999Z,73.30
2018-09-05T03:39:27.039Z,73.50
2018-09-05T03:41:55.935Z,73.80
2018-09-05T03:44:24.743Z,73.40
2018-09-05T03:46:53.554Z,73.40
2018-09-05T03:49:22.413Z,73.50
2018-09-05T03:51:51.578Z,73.60
2018-09-05T03:54:20.456Z,73.80
2018-09-05T03:56:49.468Z,73.40
2018-09-05T03:59:18.520Z,73.70
2018-09-05T04:01:47.422Z,73.90
2018-09-05T04:04:16.256Z,74.10
2018-09-05T04:06:45.163Z,74.70
2018-09-05T04:09:14.044Z,74.00
2018-09-05T04:11:43.117Z,74.20
2018-09-05T04:14:15.367Z,74.10
2018-09-05T04:16:44.276Z,74.20
2018-09-05T04:19:13.226Z,74.00
2018-09-05T04:21:42.152Z,74.40
2018-09-05T04:24:11.285Z,74.20
2018-09-05T04:26:40.377Z,74.30
2018-09-05T04:29:09.445Z,74.30
2018-09-05T04:31:38.350Z,74.50
2018-09-05T04:34:07.243Z,74.20
2018-09-05T04:36:36.114Z,74.40
2018-09-05T04:39:06.838Z,74.30
2018-09-05T04:41:35.656Z,74.20
2018-09-05T04:44:05.081Z,74.30
2018-09-05T04:46:35.181Z,74.90
2018-09-05T04:49:04.167Z,74.90
2018-09-05T04:51:34.852Z,74.80
2018-09-05T04:54:04.903Z,75.10
2018-09-05T04:56:34.224Z,75.20
2018-09-05T04:59:03.470Z,75.20
2018-09-05T05:01:32.550Z,75.10
2018-09-05T05:04:01.714Z,75.10
2018-09-05T05:06:48.719Z,74.90
2018-09-05T05:09:17.764Z,75.80
2018-09-05T05:11:47.081Z,76.00
2018-09-05T05:14:16.451Z,75.80
2018-09-05T05:16:45.648Z,75.90
2018-09-05T05:19:14.875Z,75.80
2018-09-05T05:21:51.004Z,76.00
2018-09-05T05:24:20.187Z,75.60
2018-09-05T05:26:49.511Z,76.30
2018-09-05T05:29:18.810Z,77.00
2018-09-05T05:31:49.152Z,77.20
2018-09-05T05:34:18.829Z,78.00
2018-09-05T05:37:01.133Z,78.20
2018-09-05T05:39:30.557Z,76.70
2018-09-05T05:41:59.807Z,77.30
2018-09-05T05:44:28.968Z,77.00
2018-09-05T05:46:58.557Z,76.60
2018-09-05T05:49:27.642Z,76.40
2018-09-05T05:51:56.747Z,76.30
2018-09-05T05:54:25.778Z,75.90
2018-09-05T05:56:54.991Z,77.90
2018-09-05T05:59:24.361Z,80.00
2018-09-05T06:01:53.986Z,78.80
2018-09-05T06:04:23.193Z,80.00
2018-09-05T06:06:52.432Z,77.80
2018-09-05T06:09:21.686Z,79.50
2018-09-05T06:11:50.942Z,81.20
2018-09-05T06:14:20.145Z,79.90
2018-09-05T06:16:49.405Z,77.10
2018-09-05T06:19:18.639Z,79.50
2018-09-05T06:21:47.931Z,78.60
2018-09-05T06:24:17.132Z,77.20
2018-09-05T06:26:46.632Z,77.60
2018-09-05T06:29:16.056Z,79.50
2018-09-05T06:31:45.195Z,78.40
2018-09-05T06:34:14.381Z,80.80
2018-09-05T06:36:43.643Z,78.00
2018-09-05T06:39:13.017Z,78.70
2018-09-05T06:41:42.163Z,79.30
2018-09-05T06:44:11.365Z,78.00
2018-09-05T06:46:40.565Z,78.80
2018-09-05T06:49:09.655Z,76.60
2018-09-05T06:51:38.803Z,76.10
2018-09-05T06:54:07.973Z,75.90
2018-09-05T06:56:36.860Z,76.00
2018-09-05T06:59:05.875Z,73.50
2018-09-05T07:01:35.153Z,73.60
2018-09-05T07:04:04.206Z,73.40
2018-09-05T07:06:33.217Z,72.50
2018-09-05T07:09:02.398Z,71.10
2018-09-05T07:11:32.342Z,71.60
2018-09-05T07:14:01.442Z,70.40
2018-09-05T07:16:30.343Z,70.70
2018-09-05T07:18:59.343Z,70.20
2018-09-05T07:21:34.872Z,69.10
2018-09-05T07:24:03.859Z,67.10
2018-09-05T07:26:32.921Z,66.80
2018-09-05T07:29:01.998Z,67.10
2018-09-05T07:31:30.905Z,66.80
2018-09-05T07:33:59.772Z,66.10
2018-09-05T07:36:28.792Z,64.60
2018-09-05T07:38:57.862Z,65.40
2018-09-05T07:41:27.072Z,63.90
2018-09-05T07:43:56.270Z,64.00
2018-09-05T07:46:25.371Z,63.20
2018-09-05T07:48:54.761Z,62.40
2018-09-05T07:51:23.665Z,62.10
2018-09-05T07:53:52.643Z,60.80
2018-09-05T07:56:21.648Z,61.10
2018-09-05T07:58:50.663Z,61.80
2018-09-05T08:01:19.760Z,59.90
2018-09-05T08:03:48.710Z,59.60
2018-09-05T08:06:17.746Z,59.50
2018-09-05T08:08:46.725Z,57.30
2018-09-05T08:11:15.608Z,57.80
2018-09-05T08:13:44.617Z,58.20
2018-09-05T08:16:13.584Z,58.60
2018-09-05T08:18:42.673Z,56.00
2018-09-05T08:21:12.013Z,56.00
2018-09-05T08:23:41.178Z,55.90
2018-09-05T08:26:15.017Z,55.90
2018-09-05T08:28:44.002Z,55.00
2018-09-05T08:31:13.102Z,54.20
2018-09-05T08:33:42.194Z,54.70
2018-09-05T08:36:11.616Z,54.50
2018-09-05T08:38:40.378Z,53.90
2018-09-05T08:41:10.630Z,53.30
2018-09-05T08:43:41.203Z,53.50
2018-09-05T08:46:10.381Z,54.20
2018-09-05T08:48:39.342Z,54.40
2018-09-05T08:51:08.258Z,53.70
2018-09-05T08:53:37.633Z,53.80
2018-09-05T08:56:06.688Z,53.30
2018-09-05T08:58:35.692Z,53.10
2018-09-05T09:01:04.791Z,52.50
2018-09-05T09:03:33.789Z,52.90
2018-09-05T09:06:02.780Z,53.20
2018-09-05T09:08:31.796Z,51.80
2018-09-05T09:11:01.082Z,50.90
2018-09-05T09:13:30.092Z,50.20
2018-09-05T09:15:59.169Z,50.50
2018-09-05T09:18:28.763Z,51.30
2018-09-05T09:20:57.741Z,50.40
2018-09-05T09:23:26.514Z,50.40
2018-09-05T09:25:55.575Z,50.70
2018-09-05T09:28:24.795Z,50.60
2018-09-05T09:30:53.769Z,50.10
2018-09-05T09:33:22.743Z,50.00
2018-09-05T09:35:51.718Z,48.70
2018-09-05T09:38:20.815Z,50.30
2018-09-05T09:40:50.041Z,49.50
2018-09-05T09:43:19.157Z,49.10
2018-09-05T09:45:48.334Z,48.80
2018-09-05T09:48:21.089Z,48.90
2018-09-05T09:50:49.989Z,49.10
2018-09-05T09:53:18.916Z,49.40
2018-09-05T09:55:47.852Z,49.40
2018-09-05T09:58:16.894Z,49.90
2018-09-05T10:00:51.008Z,49.30
2018-09-05T10:03:25.098Z,48.90
2018-09-05T10:05:59.197Z,49.20
2018-09-05T10:08:36.607Z,48.70
2018-09-05T10:11:10.792Z,48.60
2018-09-05T10:13:44.951Z,48.40
2018-09-05T10:16:19.210Z,47.50
2018-09-05T10:18:50.619Z,46.90
2018-09-05T10:21:19.889Z,47.10
2018-09-05T10:23:49.015Z,47.80
2018-09-05T10:26:18.421Z,47.50
2018-09-05T10:28:47.365Z,47.60
2018-09-05T10:31:16.026Z,47.10
2018-09-05T10:33:44.851Z,46.40
2018-09-05T10:36:13.876Z,46.30
2018-09-05T10:38:42.830Z,47.30
2018-09-05T10:41:11.831Z,47.90
2018-09-05T10:43:40.649Z,47.80
2018-09-05T10:46:09.654Z,47.90
2018-09-05T10:48:42.330Z,48.30
2018-09-05T10:51:11.342Z,47.50
2018-09-05T10:53:40.547Z,47.20
2018-09-05T10:56:09.664Z,47.60
2018-09-05T10:58:38.719Z,47.60
2018-09-05T11:01:08.082Z,48.40
2018-09-05T11:03:37.282Z,48.50
2018-09-05T11:06:06.323Z,49.00
2018-09-05T11:08:35.506Z,49.60
2018-09-05T11:11:04.717Z,49.30
2018-09-05T11:13:33.937Z,48.70
2018-09-05T11:16:05.581Z,48.90
2018-09-05T11:18:34.691Z,49.80
2018-09-05T11:21:04.044Z,49.90
2018-09-05T11:23:33.366Z,49.10
2018-09-05T11:26:02.650Z,49.70
2018-09-05T11:28:31.776Z,48.80
2018-09-05T11:31:00.577Z,49.10
2018-09-05T11:33:29.666Z,49.10
2018-09-05T11:35:58.703Z,49.10
2018-09-05T11:38:27.719Z,49.30
2018-09-05T11:40:56.805Z,49.70
2018-09-05T11:43:25.824Z,49.60
2018-09-05T11:45:55.115Z,49.80
2018-09-05T11:48:23.945Z,48.80
2018-09-05T11:50:52.862Z,49.60
2018-09-05T11:53:21.660Z,49.20
2018-09-05T11:55:50.661Z,48.40
2018-09-05T11:58:19.746Z,47.80
2018-09-05T12:00:48.762Z,48.80
2018-09-05T12:03:17.736Z,48.60
2018-09-05T12:05:46.693Z,48.40
2018-09-05T12:08:15.652Z,48.10
2018-09-05T12:10:49.242Z,48.30
2018-09-05T12:13:18.416Z,47.70
2018-09-05T12:15:48.490Z,48.60
2018-09-05T12:18:17.918Z,48.20
2018-09-05T12:20:49.242Z,48.10
2018-09-05T12:23:19.649Z,48.60
2018-09-05T12:25:48.794Z,48.10
2018-09-05T12:28:17.803Z,46.90
2018-09-05T12:30:46.715Z,47.60
2018-09-05T12:33:15.624Z,46.50
2018-09-05T12:35:44.601Z,47.40
2018-09-05T12:38:13.723Z,47.40
2018-09-05T12:40:42.898Z,48.20
2018-09-05T12:43:11.723Z,47.60
2018-09-05T12:45:40.672Z,46.80
2018-09-05T12:48:09.637Z,46.60
2018-09-05T12:50:38.762Z,47.60
2018-09-05T12:53:08.122Z,47.70
2018-09-05T12:55:37.270Z,47.40
2018-09-05T12:58:06.432Z,49.00
2018-09-05T13:00:37.600Z,48.00
2018-09-05T13:03:06.387Z,48.10
2018-09-05T13:05:35.292Z,47.00
2018-09-05T13:08:04.624Z,46.80
2018-09-05T13:10:33.586Z,48.00
2018-09-05T13:13:02.452Z,48.10
2018-09-05T13:15:31.566Z,49.00
2018-09-05T13:18:00.762Z,48.10
2018-09-05T13:20:32.598Z,46.70
2018-09-05T13:23:01.508Z,46.90
2018-09-05T13:25:30.510Z,46.60
2018-09-05T13:27:59.479Z,46.40
2018-09-05T13:30:28.618Z,45.70
2018-09-05T13:32:57.739Z,45.50
2018-09-05T13:35:28.949Z,44.90
2018-09-05T13:37:57.929Z,46.50
2018-09-05T13:40:26.924Z,45.80
2018-09-05T13:42:56.269Z,48.30
2018-09-05T13:45:25.241Z,47.40
2018-09-05T13:47:54.250Z,46.10
2018-09-05T13:50:23.278Z,46.10
2018-09-05T13:52:52.235Z,46.30
2018-09-05T13:55:21.179Z,47.00
2018-09-05T13:57:50.301Z,47.10
2018-09-05T14:00:19.492Z,46.50
2018-09-05T14:02:48.801Z,44.90
2018-09-05T14:05:18.253Z,47.00
2018-09-05T14:07:47.310Z,45.90
2018-09-05T14:10:17.157Z,45.50
2018-09-05T14:12:47.133Z,44.50
2018-09-05T14:15:21.769Z,45.40
2018-09-05T14:17:50.744Z,45.90
2018-09-05T14:20:19.829Z,45.40
2018-09-05T14:22:48.822Z,45.40
2018-09-05T14:25:18.243Z,44.90
2018-09-05T14:27:47.213Z,45.50
2018-09-05T14:30:16.114Z,45.40
2018-09-05T14:32:45.134Z,44.90
2018-09-05T14:35:14.025Z,45.50
2018-09-05T14:37:42.769Z,45.40
2018-09-05T14:40:23.571Z,44.90
2018-09-05T14:42:53.196Z,45.50
2018-09-05T14:45:22.162Z,45.30
2018-09-05T14:47:51.285Z,44.80
2018-09-05T14:50:20.345Z,45.00
2018-09-05T14:52:49.251Z,45.20
2018-09-05T14:55:18.217Z,45.60
2018-09-05T14:57:48.428Z,45.90
2018-09-05T15:00:17.377Z,45.60
2018-09-05T15:02:46.224Z,45.40
2018-09-05T15:05:15.235Z,45.90
2018-09-05T15:07:49.588Z,46.20
2018-09-05T15:10:18.594Z,45.80
2018-09-05T15:12:47.532Z,45.70
2018-09-05T15:15:16.609Z,46.20
2018-09-05T15:17:49.043Z,46.60
2018-09-05T15:20:18.197Z,46.20
2018-09-05T15:22:47.018Z,46.50
2018-09-05T15:25:16.091Z,46.50
2018-09-05T15:27:44.976Z,46.90
2018-09-05T15:30:14.085Z,46.60
2018-09-05T15:32:43.090Z,47.30
2018-09-05T15:35:11.978Z,47.50
2018-09-05T15:37:41.042Z,47.40
2018-09-05T15:40:10.361Z,47.00
2018-09-05T15:42:39.341Z,46.30
2018-09-05T15:45:08.379Z,46.40
2018-09-05T15:47:37.265Z,45.80
2018-09-05T15:50:06.402Z,45.30
2018-09-05T15:52:35.487Z,46.60
2018-09-05T15:55:04.403Z,46.20
2018-09-05T15:57:33.563Z,46.00
2018-09-05T16:00:02.597Z,46.30
2018-09-05T16:02:31.592Z,45.70
2018-09-05T16:05:00.593Z,45.60
2018-09-05T16:07:29.362Z,45.90
2018-09-05T16:09:58.297Z,45.60
2018-09-05T16:12:40.880Z,46.70
2018-09-05T16:15:09.767Z,47.20
2018-09-05T16:17:38.496Z,46.30
2018-09-05T16:20:07.178Z,46.00
2018-09-05T16:22:35.794Z,45.40
2018-09-05T16:25:04.560Z,45.80
2018-09-05T16:27:33.435Z,46.30
2018-09-05T16:30:02.324Z,46.20
2018-09-05T16:32:31.230Z,45.90
2018-09-05T16:34:59.988Z,45.80
2018-09-05T16:37:35.978Z,45.90
2018-09-05T16:40:05.060Z,45.70
2018-09-05T16:42:33.878Z,46.00
2018-09-05T16:45:02.680Z,46.10
2018-09-05T16:47:31.393Z,46.00
2018-09-05T16:50:00.182Z,46.40
2018-09-05T16:52:30.768Z,46.30
2018-09-05T16:54:59.778Z,46.40
2018-09-05T16:57:33.999Z,46.50
2018-09-05T17:00:02.689Z,46.70
2018-09-05T17:02:31.551Z,46.70
2018-09-05T17:05:00.257Z,46.70
2018-09-05T17:07:28.979Z,47.00
2018-09-05T17:09:57.680Z,47.20
2018-09-05T17:12:26.435Z,47.20
2018-09-05T17:14:55.256Z,47.50
2018-09-05T17:17:23.972Z,47.70
2018-09-05T17:19:52.673Z,48.00
2018-09-05T17:22:21.367Z,48.30
2018-09-05T17:24:50.069Z,48.50
2018-09-05T17:27:18.826Z,48.70
2018-09-05T17:29:47.863Z,48.90
2018-09-05T17:32:16.542Z,49.20
2018-09-05T17:34:45.296Z,49.40
2018-09-05T17:37:13.994Z,49.70
2018-09-05T17:39:42.646Z,50.00
2018-09-05T17:42:11.299Z,50.20
2018-09-05T17:44:40.036Z,50.30
2018-09-05T17:47:08.677Z,50.50
2018-09-05T17:49:37.601Z,50.80
2018-09-05T17:52:06.375Z,51.10
2018-09-05T17:54:35.418Z,51.30
2018-09-05T17:57:04.349Z,51.80
2018-09-05T17:59:33.142Z,52.10
2018-09-05T18:02:02.289Z,52.20
2018-09-05T18:04:31.207Z,52.50
2018-09-05T18:07:00.021Z,52.90
2018-09-05T18:09:29.902Z,53.00
2018-09-05T18:11:58.926Z,53.20
2018-09-05T18:14:28.668Z,53.60
2018-09-05T18:16:57.729Z,53.50
2018-09-05T18:19:27.445Z,53.80
2018-09-05T18:21:56.646Z,54.20
2018-09-05T18:24:25.978Z,54.50
2018-09-05T18:26:56.076Z,54.70
2018-09-05T18:29:25.112Z,55.20
2018-09-05T18:31:57.963Z,55.30
2018-09-05T18:34:30.937Z,55.40
2018-09-05T18:36:59.780Z,55.50
2018-09-05T18:39:28.650Z,55.90
2018-09-05T18:42:01.067Z,56.00
2018-09-05T18:44:29.920Z,56.20
2018-09-05T18:46:58.871Z,56.20
2018-09-05T18:49:27.913Z,56.70
2018-09-05T18:51:56.746Z,56.80
2018-09-05T18:54:29.160Z,57.00
2018-09-05T18:56:58.120Z,57.20
2018-09-05T18:59:27.140Z,57.40
2018-09-05T19:01:55.967Z,57.40
2018-09-05T19:04:24.842Z,57.70
2018-09-05T19:06:53.777Z,57.90
2018-09-05T19:09:22.822Z,57.90
2018-09-05T19:11:51.928Z,58.00
2018-09-05T19:14:20.937Z,58.20
2018-09-05T19:16:49.804Z,58.40
2018-09-05T19:19:18.762Z,58.50
2018-09-05T19:21:51.544Z,58.70
2018-09-05T19:24:20.393Z,58.60
2018-09-05T19:26:49.293Z,58.80
2018-09-05T19:29:18.088Z,59.10
2018-09-05T19:31:47.034Z,59.20
2018-09-05T19:34:16.109Z,59.40
2018-09-05T19:36:45.480Z,59.40
2018-09-05T19:39:16.619Z,59.60
2018-09-05T19:41:46.732Z,59.80
2018-09-05T19:44:15.582Z,59.80
2018-09-05T19:46:44.402Z,60.00
2018-09-05T19:49:13.345Z,60.10
2018-09-05T19:51:43.208Z,60.40
2018-09-05T19:54:12.078Z,60.30
2018-09-05T19:56:40.966Z,60.40
2018-09-05T19:59:10.366Z,60.70
2018-09-05T20:01:39.292Z,60.90
2018-09-05T20:04:08.372Z,60.90
2018-09-05T20:06:37.228Z,61.00
2018-09-05T20:09:07.628Z,61.00
2018-09-05T20:11:36.704Z,61.20
2018-09-05T20:14:06.963Z,61.50
2018-09-05T20:16:35.882Z,61.60
2018-09-05T20:19:04.715Z,61.70
2018-09-05T20:21:34.445Z,61.70
2018-09-05T20:24:03.176Z,61.60
2018-09-05T20:26:31.866Z,61.90
2018-09-05T20:29:00.575Z,62.00
2018-09-05T20:31:29.284Z,62.20
2018-09-05T20:33:58.224Z,62.30
2018-09-05T20:36:26.981Z,62.50
2018-09-05T20:38:55.629Z,62.60
2018-09-05T20:41:24.252Z,62.80
2018-09-05T20:43:52.911Z,62.70
2018-09-05T20:46:21.722Z,62.90
2018-09-05T20:48:50.393Z,63.00
2018-09-05T20:51:19.011Z,63.10
2018-09-05T20:53:47.669Z,63.20
2018-09-05T20:56:20.982Z,63.30
2018-09-05T20:58:49.636Z,63.50
2018-09-05T21:01:18.415Z,63.50
2018-09-05T21:03:47.147Z,63.60
2018-09-05T21:06:16.045Z,63.70
2018-09-05T21:08:45.000Z,63.90
2018-09-05T21:11:13.954Z,64.00
2018-09-05T21:13:42.877Z,64.00
2018-09-05T21:16:11.960Z,64.20
2018-09-05T21:18:40.846Z,64.20
2018-09-05T21:21:09.725Z,64.20
2018-09-05T21:23:38.630Z,64.20
2018-09-05T21:26:07.557Z,64.20
2018-09-05T21:28:36.392Z,64.40
2018-09-05T21:31:05.292Z,64.60
2018-09-05T21:33:34.245Z,64.70
2018-09-05T21:36:03.073Z,64.70
2018-09-05T21:38:32.033Z,65.00
2018-09-05T21:41:01.009Z,65.10
2018-09-05T21:43:29.939Z,65.20
2018-09-05T21:45:58.981Z,65.40
2018-09-05T21:48:27.864Z,65.40
2018-09-05T21:50:56.732Z,65.40
2018-09-05T21:53:25.660Z,65.40
2018-09-05T21:55:54.527Z,65.70
2018-09-05T21:58:23.512Z,65.70
2018-09-05T22:00:52.423Z,65.80
2018-09-05T22:03:21.266Z,65.70
2018-09-05T22:05:50.232Z,65.90
2018-09-05T22:08:19.038Z,66.00
2018-09-05T22:10:48.041Z,66.10
2018-09-05T22:13:17.017Z,66.30
2018-09-05T22:15:47.205Z,66.30
2018-09-05T22:18:17.102Z,66.40
2018-09-05T22:20:45.965Z,66.60
2018-09-05T22:23:14.848Z,66.40
2018-09-05T22:25:43.764Z,66.80
2018-09-05T22:28:12.745Z,66.90
2018-09-05T22:30:42.057Z,67.00
2018-09-05T22:33:10.856Z,66.90
2018-09-05T22:35:39.509Z,67.10
2018-09-05T22:38:08.232Z,67.20
2018-09-05T22:40:42.214Z,67.30
2018-09-05T22:43:21.804Z,67.40
2018-09-05T22:46:01.490Z,67.50
2018-09-05T22:50:55.809Z,67.50
2018-09-05T22:53:54.464Z,67.70
2018-09-05T22:58:34.581Z,67.80
2018-09-05T23:03:16.134Z,68.10
2018-09-05T23:07:58.020Z,68.10
2018-09-05T23:10:37.551Z,68.30
2018-09-05T23:13:17.227Z,68.30
2018-09-05T23:15:56.961Z,68.50
2018-09-05T23:18:36.689Z,68.50
2018-09-05T23:21:22.151Z,68.50
2018-09-05T23:24:05.440Z,68.60
2018-09-05T23:26:34.175Z,68.70
2018-09-05T23:29:02.947Z,68.80
2018-09-05T23:31:31.709Z,68.80
2018-09-05T23:34:00.402Z,68.80
2018-09-05T23:36:29.195Z,69.00
2018-09-05T23:38:57.990Z,69.00
2018-09-05T23:41:26.671Z,69.10
2018-09-05T23:43:55.317Z,69.10
2018-09-05T23:46:24.058Z,69.30
2018-09-05T23:48:52.709Z,69.40
2018-09-05T23:51:21.541Z,69.50
2018-09-05T23:53:50.549Z,69.60
2018-09-05T23:56:19.458Z,69.60
2018-09-05T23:58:48.397Z,69.60
